Time;durP1;ratioP1;P1;durP2;ratioP2;P2;SDS_P1;SDS_P2;PMS_P1;PMS_P2;Temp;Humidity;BMP_temperature;BMP_pressure;BME280_temperature;BME280_humidity;BME280_pressure;Samples;Min_cycle;Max_cycle;Signal;HPM_P1;HPM_P2
2023/11/23 00:00:17;;;;;;;0.10;0.10;;;;;;;12.13;nan;100806.66;7399090;19;20014;-57
2023/11/23 00:02:43;;;;;;;0.00;0.00;;;;;;;11.95;nan;100790.66;7399387;19;20018;-58
2023/11/23 00:05:09;;;;;;;0.00;0.00;;;;;;;12.09;nan;100801.22;7399182;19;20021;-58
2023/11/23 00:07:38;;;;;;;0.00;0.00;;;;;;;12.06;nan;100790.97;7399709;19;20073;-58
2023/11/23 00:10:04;;;;;;;0.00;0.00;;;;;;;12.22;nan;100794.72;7399697;19;20018;-58
2023/11/23 00:12:30;;;;;;;0.00;0.00;;;;;;;12.10;nan;100790.84;7400172;19;20010;-58
2023/11/23 00:14:56;;;;;;;0.10;0.00;;;;;;;12.11;nan;100804.34;7400294;19;20010;-58
2023/11/23 00:17:22;;;;;;;0.00;0.00;;;;;;;12.13;nan;100799.06;7399762;19;20046;-58
2023/11/23 00:19:49;;;;;;;0.10;0.10;;;;;;;12.10;nan;100802.78;7399104;19;20490;-58
2023/11/23 00:22:15;;;;;;;0.00;0.00;;;;;;;12.05;nan;100797.81;7399409;19;20032;-58
2023/11/23 00:24:42;;;;;;;0.00;0.00;;;;;;;12.02;nan;100798.72;7398600;19;20007;-58
2023/11/23 00:27:08;;;;;;;0.00;0.00;;;;;;;12.18;nan;100795.66;7398164;19;20009;-58
2023/11/23 00:29:34;;;;;;;0.00;0.00;;;;;;;12.18;nan;100792.88;7398464;19;20011;-58
2023/11/23 00:32:01;;;;;;;0.40;0.17;;;;;;;12.30;nan;100793.19;7397741;19;20336;-58
2023/11/23 00:34:27;;;;;;;0.10;0.10;;;;;;;12.21;nan;100779.22;7399224;19;20015;-58
2023/11/23 00:36:53;;;;;;;0.00;0.00;;;;;;;12.26;nan;100787.75;7399873;19;20030;-58
2023/11/23 00:39:19;;;;;;;0.10;0.10;;;;;;;12.38;nan;100784.03;7398772;19;20006;-58
2023/11/23 00:41:46;;;;;;;0.00;0.00;;;;;;;13.07;nan;100772.94;7395171;19;20010;-58
2023/11/23 00:44:12;;;;;;;0.00;0.00;;;;;;;14.42;nan;100765.81;7397839;19;20484;-58
2023/11/23 00:46:38;;;;;;;0.00;0.00;;;;;;;12.45;nan;100777.38;7398276;19;20017;-58
2023/11/23 00:49:05;;;;;;;0.00;0.00;;;;;;;12.67;nan;100777.94;7397233;19;20359;-58
2023/11/23 00:51:36;;;;;;;0.03;0.00;;;;;;;12.44;nan;100770.22;7395877;19;20010;-58
2023/11/23 00:54:04;;;;;;;0.00;0.00;;;;;;;14.00;nan;100758.81;7400103;19;20003;-58
2023/11/23 00:56:30;;;;;;;0.00;0.00;;;;;;;13.91;nan;100761.66;7398199;19;20023;-58
2023/11/23 00:58:56;;;;;;;0.10;0.10;;;;;;;12.66;nan;100776.41;7399967;19;20443;-58
2023/11/23 01:01:22;;;;;;;0.00;0.00;;;;;;;12.64;nan;100776.91;7398174;19;20011;-58
2023/11/23 01:03:48;;;;;;;0.00;0.00;;;;;;;12.59;nan;100769.13;7397027;19;20443;-58
2023/11/23 01:06:15;;;;;;;0.00;0.00;;;;;;;12.90;nan;100768.94;7398922;19;20026;-59
2023/11/23 01:08:41;;;;;;;0.00;0.00;;;;;;;12.50;nan;100768.34;7396662;19;20027;-58
2023/11/23 01:11:09;;;;;;;0.00;0.00;;;;;;;12.37;nan;100776.09;7398280;19;20010;-58
2023/11/23 01:13:35;;;;;;;0.00;0.00;;;;;;;12.26;nan;100779.38;7397419;19;20010;-59
2023/11/23 01:16:02;;;;;;;0.00;0.00;;;;;;;12.26;nan;100787.75;7396782;19;20007;-59
2023/11/23 01:18:28;;;;;;;0.00;0.00;;;;;;;14.84;nan;100771.22;7397156;19;20002;-58
2023/11/23 01:20:54;;;;;;;0.00;0.00;;;;;;;13.17;nan;100763.28;7394545;19;20010;-58
2023/11/23 01:23:21;;;;;;;0.05;0.05;;;;;;;12.42;nan;100783.88;7397331;19;20007;-58
2023/11/23 01:25:47;;;;;;;0.00;0.00;;;;;;;12.30;nan;100787.59;7397925;19;20077;-58
2023/11/23 01:28:13;;;;;;;0.00;0.00;;;;;;;12.21;nan;100779.22;7395456;19;20082;-58
2023/11/23 01:30:40;;;;;;;0.10;0.10;;;;;;;12.22;nan;100787.13;7398309;19;20023;-58
2023/11/23 01:33:07;;;;;;;0.00;0.00;;;;;;;12.27;nan;100789.31;7395948;19;20403;-58
2023/11/23 01:35:33;;;;;;;0.00;0.00;;;;;;;12.27;nan;100794.91;7397080;19;20014;-58
2023/11/23 01:38:01;;;;;;;0.00;0.00;;;;;;;12.21;nan;100791.16;7396625;19;20007;-58
2023/11/23 01:40:27;;;;;;;0.00;0.00;;;;;;;12.26;nan;100798.91;7395929;19;20447;-58
2023/11/23 01:42:59;;;;;;;0.10;0.00;;;;;;;12.89;nan;100790.50;7397730;19;20811;-58
2023/11/23 01:45:25;;;;;;;0.10;0.00;;;;;;;12.10;nan;100802.78;7396960;19;20006;-59
2023/11/23 01:47:51;;;;;;;0.00;0.00;;;;;;;12.21;nan;100796.75;7396342;19;20022;-58
2023/11/23 01:50:20;;;;;;;0.10;0.10;;;;;;;12.21;nan;100790.38;7397534;19;20389;-58
2023/11/23 01:52:47;;;;;;;0.00;0.00;;;;;;;12.18;nan;100801.25;7396352;19;20011;-58
2023/11/23 01:55:14;;;;;;;0.00;0.00;;;;;;;12.27;nan;100799.69;7395878;19;20017;-58
2023/11/23 01:57:41;;;;;;;0.00;0.00;;;;;;;12.28;nan;100790.09;7395564;19;20043;-58
2023/11/23 02:00:09;;;;;;;0.10;0.10;;;;;;;12.28;nan;100801.25;7396128;19;20494;-58
2023/11/23 02:02:38;;;;;;;0.00;0.00;;;;;;;12.24;nan;100786.66;7400428;19;20022;-58
2023/11/23 02:05:05;;;;;;;0.00;0.00;;;;;;;12.24;nan;100800.63;7404252;19;20377;-58
2023/11/23 02:07:34;;;;;;;0.20;0.10;;;;;;;12.25;nan;100807.75;7402340;19;20010;-58
2023/11/23 02:10:01;;;;;;;0.00;0.00;;;;;;;12.32;nan;100799.09;7402886;19;20018;-58
2023/11/23 02:12:28;;;;;;;0.00;0.00;;;;;;;12.31;nan;100805.91;7404345;19;20039;-58
2023/11/23 02:14:56;;;;;;;0.00;0.00;;;;;;;12.27;nan;100811.66;7403621;19;20018;-58
2023/11/23 02:17:24;;;;;;;0.00;0.00;;;;;;;12.33;nan;100807.00;7403081;19;20368;-58
2023/11/23 02:19:51;;;;;;;0.15;0.15;;;;;;;12.23;nan;100810.25;7400976;19;20019;-58
2023/11/23 02:22:17;;;;;;;0.00;0.00;;;;;;;12.28;nan;100806.84;7403753;19;20015;-58
2023/11/23 02:24:44;;;;;;;0.00;0.00;;;;;;;12.34;nan;100810.56;7403981;19;20022;-58
2023/11/23 02:27:10;;;;;;;0.00;0.00;;;;;;;12.40;nan;100808.72;7403166;19;20515;-58
2023/11/23 02:29:37;;;;;;;0.00;0.00;;;;;;;12.41;nan;100797.06;7399692;19;20037;-58
2023/11/23 02:32:08;;;;;;;0.00;0.00;;;;;;;12.81;nan;100797.69;7403346;19;20037;-58
2023/11/23 02:34:35;;;;;;;0.00;0.00;;;;;;;12.68;nan;100804.66;7401903;19;20011;-58
2023/11/23 02:37:02;;;;;;;0.00;0.00;;;;;;;12.48;nan;100798.78;7403686;19;20015;-58
2023/11/23 02:39:29;;;;;;;0.00;0.00;;;;;;;12.54;nan;100797.69;7403368;19;20025;-58
2023/11/23 02:41:57;;;;;;;0.00;0.00;;;;;;;12.43;nan;100805.75;7398337;19;20450;-58
2023/11/23 02:44:23;;;;;;;0.00;0.00;;;;;;;12.49;nan;100798.31;7403028;19;20010;-58
2023/11/23 02:46:50;;;;;;;0.00;0.00;;;;;;;12.41;nan;100799.09;7402900;19;20010;-58
2023/11/23 02:49:18;;;;;;;0.10;0.10;;;;;;;12.29;nan;100802.81;7401007;19;20014;-58
2023/11/23 02:51:45;;;;;;;0.00;0.00;;;;;;;12.40;nan;100803.91;7400786;19;20332;-58
2023/11/23 02:54:12;;;;;;;0.00;0.00;;;;;;;12.34;nan;100807.78;7401440;19;20003;-58
2023/11/23 02:56:38;;;;;;;1.48;0.10;;;;;;;12.18;nan;100792.88;7399334;19;20698;-57
2023/11/23 02:59:07;;;;;;;0.00;0.00;;;;;;;12.11;nan;100803.56;7402549;19;20007;-58
2023/11/23 03:01:34;;;;;;;0.55;0.38;;;;;;;12.16;nan;100800.94;7399757;19;20006;-58
2023/11/23 03:04:00;;;;;;;0.10;0.10;;;;;;;12.13;nan;100801.84;7399881;19;20013;-58
2023/11/23 03:06:29;;;;;;;0.20;0.10;;;;;;;12.13;nan;100801.06;7402399;19;20039;-58
2023/11/23 03:08:55;;;;;;;0.10;0.00;;;;;;;12.14;nan;100802.63;7400587;19;20007;-58
2023/11/23 03:11:24;;;;;;;0.00;0.00;;;;;;;12.10;nan;100791.63;7401829;19;20010;-58
2023/11/23 03:13:54;;;;;;;0.00;0.00;;;;;;;12.05;nan;100792.22;7400154;19;20006;-58
2023/11/23 03:16:21;;;;;;;0.10;0.00;;;;;;;12.01;nan;100788.03;7401579;19;20018;-58
2023/11/23 03:18:47;;;;;;;0.00;0.00;;;;;;;12.04;nan;100793.47;7401225;19;20018;-58
2023/11/23 03:21:13;;;;;;;0.00;0.00;;;;;;;11.86;nan;100793.44;7400699;19;20017;-58
2023/11/23 03:23:41;;;;;;;0.10;0.00;;;;;;;11.91;nan;100790.03;7400167;19;20078;-58
2023/11/23 03:26:09;;;;;;;0.10;0.00;;;;;;;11.78;nan;100797.75;7403072;19;20400;-58
2023/11/23 03:28:35;;;;;;;0.10;0.10;;;;;;;11.69;nan;100794.94;7399342;19;20031;-58
2023/11/23 03:31:01;;;;;;;0.00;0.00;;;;;;;11.79;nan;100788.13;7402510;19;20007;-58
2023/11/23 03:33:28;;;;;;;0.10;0.10;;;;;;;11.95;nan;100789.88;7399513;19;20013;-58
2023/11/23 03:35:55;;;;;;;0.00;0.00;;;;;;;11.79;nan;100787.34;7401897;19;20017;-58
2023/11/23 03:38:21;;;;;;;0.00;0.00;;;;;;;11.73;nan;100778.81;7400742;19;20019;-58
2023/11/23 03:40:47;;;;;;;0.10;0.10;;;;;;;12.38;nan;100772.09;7399912;19;20332;-59
2023/11/23 03:43:14;;;;;;;0.00;0.00;;;;;;;11.63;nan;100771.63;7399072;19;20015;-59
2023/11/23 03:45:41;;;;;;;0.00;0.00;;;;;;;11.82;nan;100770.47;7401380;19;20435;-59
2023/11/23 03:48:07;;;;;;;0.10;0.10;;;;;;;11.56;nan;100768.34;7401387;19;20019;-59
2023/11/23 03:50:33;;;;;;;0.00;0.00;;;;;;;12.13;nan;100765.56;7397363;19;20451;-59
2023/11/23 03:53:00;;;;;;;0.00;0.00;;;;;;;11.66;nan;100759.56;7401099;19;20027;-59
2023/11/23 03:55:26;;;;;;;0.10;0.00;;;;;;;11.66;nan;100756.75;7399600;19;20015;-59
2023/11/23 03:57:52;;;;;;;0.10;0.00;;;;;;;11.57;nan;100753.94;7399542;19;20039;-59
2023/11/23 04:00:21;;;;;;;0.10;0.10;;;;;;;11.57;nan;100747.56;7398519;19;20017;-59
2023/11/23 04:02:47;;;;;;;0.50;0.25;;;;;;;11.71;nan;100747.81;7400496;19;20010;-59
2023/11/23 04:05:17;;;;;;;0.10;0.00;;;;;;;11.99;nan;100748.63;7400992;19;20015;-59
2023/11/23 04:07:46;;;;;;;0.00;0.00;;;;;;;11.67;nan;100744.41;7399308;19;20407;-59
2023/11/23 04:10:13;;;;;;;0.00;0.00;;;;;;;11.62;nan;100753.34;7399572;19;20471;-59
2023/11/23 04:12:39;;;;;;;0.10;0.00;;;;;;;12.03;nan;100752.84;7400176;19;20010;-59
2023/11/23 04:15:07;;;;;;;0.00;0.00;;;;;;;11.60;nan;100741.88;7395986;19;20019;-59
2023/11/23 04:17:33;;;;;;;0.08;0.00;;;;;;;11.44;nan;100750.50;7397618;19;20467;-59
2023/11/23 04:20:00;;;;;;;0.10;0.00;;;;;;;12.94;nan;100731.19;7395923;19;20011;-59
2023/11/23 04:22:26;;;;;;;0.10;0.00;;;;;;;11.93;nan;100731.72;7395076;19;20018;-59
2023/11/23 04:24:53;;;;;;;0.00;0.00;;;;;;;13.20;nan;100731.56;7393562;19;20054;-59
2023/11/23 04:27:19;;;;;;;0.00;0.00;;;;;;;13.88;nan;100709.44;7395114;19;20010;-59
2023/11/23 04:29:47;;;;;;;0.10;0.00;;;;;;;14.06;nan;100707.25;7399293;19;20010;-59
2023/11/23 04:32:13;;;;;;;0.10;0.00;;;;;;;14.53;nan;100700.78;7395607;19;20023;-59
2023/11/23 04:34:40;;;;;;;0.00;0.00;;;;;;;14.80;nan;100692.13;7395402;19;20039;-59
2023/11/23 04:37:06;;;;;;;0.10;0.00;;;;;;;15.11;nan;100695.19;7395458;19;20021;-59
2023/11/23 04:39:32;;;;;;;0.00;0.00;;;;;;;15.06;nan;100698.66;7394704;19;20011;-59
2023/11/23 04:41:58;;;;;;;0.00;0.00;;;;;;;15.03;nan;100694.00;7396044;19;20029;-59
2023/11/23 04:44:24;;;;;;;0.00;0.00;;;;;;;15.15;nan;100683.75;7399015;19;20070;-59
2023/11/23 04:46:51;;;;;;;0.00;0.00;;;;;;;14.79;nan;100690.56;7394578;19;20014;-59
2023/11/23 04:49:18;;;;;;;0.28;0.10;;;;;;;12.52;nan;100707.19;7394444;19;20007;-59
2023/11/23 04:51:44;;;;;;;0.10;0.00;;;;;;;13.60;nan;100706.81;7398105;19;20039;-59
2023/11/23 04:54:10;;;;;;;0.40;0.35;;;;;;;13.20;nan;100720.38;7395045;19;20035;-59
2023/11/23 04:56:36;;;;;;;0.08;0.00;;;;;;;13.82;nan;100698.09;7394730;19;20006;-59
2023/11/23 04:59:02;;;;;;;0.00;0.00;;;;;;;13.35;nan;100703.69;7395211;19;20014;-59
2023/11/23 05:01:29;;;;;;;0.00;0.00;;;;;;;12.36;nan;100713.13;7395560;19;20078;-58
2023/11/23 05:03:55;;;;;;;0.00;0.00;;;;;;;12.12;nan;100715.75;7394120;19;20335;-59
2023/11/23 05:06:22;;;;;;;0.00;0.00;;;;;;;12.00;nan;100717.47;7396706;19;20017;-59
2023/11/23 05:08:48;;;;;;;0.00;0.00;;;;;;;12.85;nan;100710.84;7397803;19;20007;-59
2023/11/23 05:11:15;;;;;;;0.20;0.13;;;;;;;12.82;nan;100709.00;7395885;19;20021;-59
2023/11/23 05:13:41;;;;;;;0.00;0.00;;;;;;;15.35;nan;100697.06;7396211;19;20035;-59
2023/11/23 05:16:07;;;;;;;0.00;0.00;;;;;;;15.38;nan;100682.03;7393963;19;20014;-59
2023/11/23 05:18:34;;;;;;;0.00;0.00;;;;;;;14.05;nan;100694.53;7392214;19;20025;-59
2023/11/23 05:21:00;;;;;;;0.08;0.08;;;;;;;14.85;nan;100688.63;7392974;19;20405;-59
2023/11/23 05:23:26;;;;;;;0.28;0.10;;;;;;;13.30;nan;100677.13;7393502;19;20472;-59
2023/11/23 05:25:52;;;;;;;0.00;0.00;;;;;;;12.35;nan;100694.78;7397432;19;20010;-59
2023/11/23 05:28:19;;;;;;;0.00;0.00;;;;;;;36.02;nan;100641.72;7392757;19;20015;-59
2023/11/23 05:30:45;;;;;;;0.00;0.00;;;;;;;30.85;nan;100642.06;7397943;19;20027;-59
2023/11/23 05:33:12;;;;;;;0.00;0.00;;;;;;;40.28;nan;100635.25;7393949;19;20007;-59
2023/11/23 05:35:38;;;;;;;0.00;0.00;;;;;;;41.40;nan;100645.47;7390414;19;20022;-59
2023/11/23 05:38:04;;;;;;;0.00;0.00;;;;;;;17.77;nan;100678.28;7393434;19;20014;-59
2023/11/23 05:40:30;;;;;;;0.00;0.00;;;;;;;29.26;nan;100653.97;7393579;19;20478;-59
2023/11/23 05:42:57;;;;;;;0.10;0.00;;;;;;;39.20;nan;100637.91;7397673;19;20031;-59
2023/11/23 05:45:24;;;;;;;5.13;0.90;;;;;;;40.41;nan;100635.09;7392853;19;20010;-59
2023/11/23 05:47:50;;;;;;;0.00;0.00;;;;;;;41.48;nan;100630.34;7393354;19;20455;-59
2023/11/23 05:50:16;;;;;;;0.00;0.00;;;;;;;41.84;nan;100636.75;7393242;19;20014;-59
2023/11/23 05:52:43;;;;;;;0.00;0.00;;;;;;;42.05;nan;100633.06;7392368;19;20041;-59
2023/11/23 05:55:09;;;;;;;0.10;0.10;;;;;;;42.37;nan;100628.25;7393599;19;20460;-59
2023/11/23 05:57:35;;;;;;;0.00;0.00;;;;;;;42.42;nan;100626.94;7391812;19;20017;-59
2023/11/23 06:00:04;;;;;;;0.00;0.00;;;;;;;42.46;nan;100620.47;7392582;19;20043;-59
2023/11/23 06:02:31;;;;;;;1.35;0.22;;;;;;;42.50;nan;100624.28;7395578;19;20015;-59
2023/11/23 06:04:57;;;;;;;0.00;0.00;;;;;;;42.43;nan;100624.78;7396908;19;20007;-59
2023/11/23 06:07:23;;;;;;;0.00;0.00;;;;;;;42.48;nan;100617.63;7392715;19;20023;-59
2023/11/23 06:09:51;;;;;;;0.00;0.00;;;;;;;42.74;nan;100633.81;7397063;19;20074;-59
2023/11/23 06:12:17;;;;;;;0.00;0.00;;;;;;;42.95;nan;100624.19;7396430;19;20031;-59
2023/11/23 06:14:43;;;;;;;0.00;0.00;;;;;;;43.17;nan;100624.06;7392575;19;20017;-59
2023/11/23 06:17:14;;;;;;;0.00;0.00;;;;;;;43.15;nan;100617.41;7395424;19;20010;-59
2023/11/23 06:19:41;;;;;;;0.00;0.00;;;;;;;43.19;nan;100605.81;7391482;19;20032;-59
2023/11/23 06:22:07;;;;;;;0.00;0.00;;;;;;;43.02;nan;100610.47;7393996;19;20014;-59
2023/11/23 06:24:34;;;;;;;0.10;0.00;;;;;;;42.86;nan;100604.88;7390241;19;20014;-59
2023/11/23 06:27:00;;;;;;;0.10;0.00;;;;;;;18.70;nan;100636.75;7395230;19;20463;-59
2023/11/23 06:29:26;;;;;;;0.00;0.00;;;;;;;15.05;nan;100635.38;7394360;19;20031;-59
2023/11/23 06:31:52;;;;;;;0.10;0.00;;;;;;;13.52;nan;100649.66;7390943;19;20035;-59
2023/11/23 06:34:18;;;;;;;0.00;0.00;;;;;;;12.96;nan;100644.03;7390530;19;20006;-59
2023/11/23 06:36:44;;;;;;;0.00;0.00;;;;;;;12.53;nan;100656.44;7393061;19;20011;-59
2023/11/23 06:39:11;;;;;;;0.00;0.00;;;;;;;12.89;nan;100658.34;7391216;19;20022;-59
2023/11/23 06:41:37;;;;;;;0.00;0.00;;;;;;;12.50;nan;100651.78;7392046;19;20074;-58
2023/11/23 06:44:04;;;;;;;0.00;0.00;;;;;;;37.21;nan;100602.63;7390825;19;20018;-58
2023/11/23 06:46:30;;;;;;;0.00;0.00;;;;;;;40.37;nan;100590.38;7392922;19;20011;-58
2023/11/23 06:48:56;;;;;;;0.00;0.00;;;;;;;41.38;nan;100592.75;7400444;19;20014;-58
2023/11/23 06:51:22;;;;;;;0.08;0.00;;;;;;;30.80;nan;100614.31;7399848;19;20393;-58
2023/11/23 06:53:48;;;;;;;0.00;0.00;;;;;;;38.15;nan;100592.19;7397972;19;20011;-58
2023/11/23 06:56:16;;;;;;;0.10;0.10;;;;;;;41.93;nan;100598.25;7402434;19;20495;-58
2023/11/23 06:58:46;;;;;;;0.00;0.00;;;;;;;42.68;nan;100586.75;7401458;19;20022;-58
2023/11/23 07:01:14;;;;;;;0.10;0.00;;;;;;;44.34;nan;100583.81;7401369;19;20499;-58
2023/11/23 07:03:41;;;;;;;0.10;0.00;;;;;;;44.91;nan;100579.91;7402654;19;20007;-58
2023/11/23 07:06:08;;;;;;;1.27;0.32;;;;;;;45.25;nan;100585.72;7399735;19;20488;-58
2023/11/23 07:08:35;;;;;;;0.00;0.00;;;;;;;26.48;nan;100617.81;7400726;19;20366;-58
2023/11/23 07:11:05;;;;;;;0.10;0.10;;;;;;;26.16;nan;100621.13;7400842;19;20392;-58
2023/11/23 07:13:32;;;;;;;0.17;0.17;;;;;;;24.45;nan;100620.09;7401543;19;20467;-59
2023/11/23 07:16:02;;;;;;;0.00;0.00;;;;;;;23.49;nan;100613.38;7401147;19;20021;-59
2023/11/23 07:18:29;;;;;;;0.00;0.00;;;;;;;23.08;nan;100608.19;7397737;19;20437;-58
2023/11/23 07:20:56;;;;;;;0.00;0.00;;;;;;;22.78;nan;100619.84;7400058;19;20013;-58
2023/11/23 07:23:23;;;;;;;0.05;0.05;;;;;;;22.45;nan;100626.78;7397370;19;20066;-58
2023/11/23 07:25:49;;;;;;;0.05;0.05;;;;;;;21.93;nan;100631.41;7399125;19;20018;-58
2023/11/23 07:28:16;;;;;;;0.35;0.10;;;;;;;21.69;nan;100618.03;7397692;19;20018;-57
2023/11/23 07:30:42;;;;;;;0.20;0.13;;;;;;;21.46;nan;100625.25;7399999;19;20006;-59
2023/11/23 07:33:09;;;;;;;1.30;0.63;;;;;;;21.33;nan;100625.16;7400801;19;20026;-58
2023/11/23 07:35:36;;;;;;;1.38;0.55;;;;;;;21.13;nan;100624.31;7396406;19;20015;-58
2023/11/23 07:38:05;;;;;;;0.00;0.00;;;;;;;21.02;nan;100615.13;7397090;19;20560;-58
2023/11/23 07:40:32;;;;;;;0.10;0.00;;;;;;;20.83;nan;100629.22;7394801;19;20033;-58
2023/11/23 07:42:58;;;;;;;0.00;0.00;;;;;;;20.36;nan;100622.09;7400820;19;20006;-58
2023/11/23 07:45:25;;;;;;;1.20;0.20;;;;;;;20.18;nan;100619.91;7394705;19;20010;-58
2023/11/23 07:47:51;;;;;;;0.00;0.00;;;;;;;19.79;nan;100614.47;7396734;19;20011;-58
2023/11/23 07:50:17;;;;;;;0.00;0.00;;;;;;;19.59;nan;100620.44;7396567;19;20460;-58
2023/11/23 07:52:44;;;;;;;0.40;0.22;;;;;;;19.36;nan;100619.75;7395903;19;20479;-58
2023/11/23 07:55:12;;;;;;;0.00;0.00;;;;;;;19.28;nan;100613.06;7396720;19;20017;-58
2023/11/23 07:57:39;;;;;;;0.20;0.15;;;;;;;19.15;nan;100607.19;7396556;19;20010;-58
2023/11/23 08:00:07;;;;;;;0.10;0.10;;;;;;;19.01;nan;100608.25;7396868;19;20036;-58
2023/11/23 08:02:33;;;;;;;0.10;0.10;;;;;;;18.90;nan;100603.41;7399816;19;20077;-58
2023/11/23 08:04:59;;;;;;;0.40;0.35;;;;;;;18.71;nan;100621.38;7399950;19;20493;-58
2023/11/23 08:07:26;;;;;;;0.10;0.00;;;;;;;18.61;nan;100615.19;7394505;19;20350;-58
2023/11/23 08:09:52;;;;;;;0.00;0.00;;;;;;;18.71;nan;100621.38;7399972;19;20025;-58
2023/11/23 08:12:18;;;;;;;0.00;0.00;;;;;;;18.82;nan;100626.97;7400387;19;20073;-58
2023/11/23 08:14:45;;;;;;;0.00;0.00;;;;;;;18.93;nan;100618.50;7395975;19;20011;-58
2023/11/23 08:17:12;;;;;;;0.10;0.10;;;;;;;18.69;nan;100619.03;7399287;19;20017;-58
2023/11/23 08:19:39;;;;;;;0.03;0.00;;;;;;;18.59;nan;100619.81;7399324;19;20007;-58
2023/11/23 08:22:08;;;;;;;0.10;0.10;;;;;;;18.55;nan;100608.00;7397107;19;20047;-58
2023/11/23 08:24:34;;;;;;;0.00;0.00;;;;;;;18.48;nan;100598.00;7395349;19;20010;-58
2023/11/23 08:27:01;;;;;;;0.00;0.00;;;;;;;18.65;nan;100612.13;7396169;19;20010;-59
2023/11/23 08:29:30;;;;;;;0.00;0.00;;;;;;;18.38;nan;100616.44;7396787;19;20035;-59
2023/11/23 08:31:57;;;;;;;0.00;0.00;;;;;;;18.31;nan;100619.00;7398408;19;20010;-58
2023/11/23 08:34:24;;;;;;;0.00;0.00;;;;;;;18.29;nan;100613.09;7393748;19;20041;-58
2023/11/23 08:36:51;;;;;;;0.10;0.10;;;;;;;18.23;nan;100612.31;7395118;19;20011;-58
2023/11/23 08:39:19;;;;;;;0.00;0.00;;;;;;;18.06;nan;100604.59;7394824;19;20006;-59
2023/11/23 08:41:46;;;;;;;0.03;0.03;;;;;;;18.04;nan;100609.97;7396266;19;20010;-59
2023/11/23 08:44:13;;;;;;;0.10;0.10;;;;;;;18.09;nan;100614.06;7395746;19;20013;-59
2023/11/23 08:46:43;;;;;;;0.90;0.28;;;;;;;17.98;nan;100617.66;7394744;19;20014;-59
2023/11/23 08:49:12;;;;;;;0.10;0.00;;;;;;;17.88;nan;100602.25;7395056;19;20015;-58
2023/11/23 08:51:39;;;;;;;1.70;0.52;;;;;;;17.93;nan;100604.28;7397169;19;20456;-58
2023/11/23 08:54:05;;;;;;;0.00;0.00;;;;;;;17.86;nan;100599.19;7394050;19;20027;-58
2023/11/23 08:56:32;;;;;;;0.00;0.00;;;;;;;17.68;nan;100605.25;7394025;19;20002;-58
2023/11/23 08:58:59;;;;;;;3.13;0.65;;;;;;;17.61;nan;100583.19;7392957;19;20017;-58
2023/11/23 09:01:26;;;;;;;0.10;0.10;;;;;;;17.48;nan;100580.03;7394358;19;20364;-59
2023/11/23 09:03:54;;;;;;;0.10;0.10;;;;;;;17.56;nan;100569.88;7396967;19;20014;-59
2023/11/23 09:06:21;;;;;;;0.00;0.00;;;;;;;17.46;nan;100576.97;7394291;19;20347;-59
2023/11/23 09:08:48;;;;;;;0.00;0.00;;;;;;;17.39;nan;100583.06;7395845;19;20021;-59
2023/11/23 09:11:15;;;;;;;0.00;0.00;;;;;;;17.40;nan;100576.94;7394433;19;20015;-59
2023/11/23 09:13:43;;;;;;;0.10;0.10;;;;;;;17.36;nan;100578.47;7393157;19;20018;-59
2023/11/23 09:16:11;;;;;;;0.00;0.00;;;;;;;17.33;nan;100562.56;7398449;19;20018;-59
2023/11/23 09:18:37;;;;;;;0.00;0.00;;;;;;;17.37;nan;100563.09;7398658;19;20019;-59
2023/11/23 09:21:05;;;;;;;0.00;0.00;;;;;;;17.58;nan;100564.50;7395312;19;20006;-59
2023/11/23 09:23:31;;;;;;;0.40;0.32;;;;;;;17.32;nan;100549.78;7393775;19;20051;-59
2023/11/23 09:25:58;;;;;;;0.80;0.15;;;;;;;17.17;nan;100549.19;7393793;19;20015;-58
2023/11/23 09:28:24;;;;;;;0.00;0.00;;;;;;;17.47;nan;100533.44;7392532;19;20419;-59
2023/11/23 09:30:51;;;;;;;0.00;0.00;;;;;;;17.40;nan;100540.34;7393810;19;20842;-59
2023/11/23 09:33:18;;;;;;;0.00;0.00;;;;;;;17.19;nan;100524.13;7393501;19;20019;-58
2023/11/23 09:35:44;;;;;;;0.05;0.00;;;;;;;17.48;nan;100515.25;7393771;19;20018;-58
2023/11/23 09:38:10;;;;;;;0.00;0.00;;;;;;;17.60;nan;100519.69;7393899;19;20021;-58
2023/11/23 09:40:36;;;;;;;0.00;0.00;;;;;;;17.89;nan;100519.22;7394109;19;20011;-58
2023/11/23 09:43:04;;;;;;;0.20;0.20;;;;;;;17.79;nan;100520.00;7397189;19;20003;-58
2023/11/23 09:45:31;;;;;;;0.38;0.15;;;;;;;18.13;nan;100513.09;7391873;19;20014;-58
2023/11/23 09:47:59;;;;;;;0.00;0.00;;;;;;;17.25;nan;100528.50;7392541;19;20492;-58
2023/11/23 09:50:27;;;;;;;0.00;0.00;;;;;;;17.25;nan;100527.72;7393055;19;20347;-58
2023/11/23 09:52:54;;;;;;;0.70;0.15;;;;;;;16.93;nan;100526.28;7392985;19;20467;-58
2023/11/23 09:55:20;;;;;;;0.00;0.00;;;;;;;17.00;nan;100528.63;7393249;19;20010;-58
2023/11/23 09:57:50;;;;;;;0.10;0.10;;;;;;;17.05;nan;100525.84;7393003;19;20842;-58
2023/11/23 10:02:55;;;;;;;0.20;0.15;;;;;;;16.83;nan;100530.59;7387589;19;20036;-90
2023/11/23 10:05:23;;;;;;;0.00;0.00;;;;;;;16.86;nan;100535.19;7386837;19;20021;-89
2023/11/23 10:07:52;;;;;;;0.00;0.00;;;;;;;16.96;nan;100528.84;7390437;19;20459;-92
2023/11/23 10:10:18;;;;;;;0.00;0.00;;;;;;;16.82;nan;100523.41;7388472;19;20063;-90
2023/11/23 10:12:47;;;;;;;0.00;0.00;;;;;;;16.81;nan;100527.47;7391348;19;20022;-92
2023/11/23 10:15:13;;;;;;;0.00;0.00;;;;;;;16.85;nan;100533.66;7388661;19;20066;-91
2023/11/23 10:17:42;;;;;;;0.00;0.00;;;;;;;16.93;nan;100540.34;7388247;19;20023;-92
2023/11/23 10:20:15;;;;;;;0.00;0.00;;;;;;;17.02;nan;100548.59;7388436;19;20011;-91
2023/11/23 10:22:46;;;;;;;0.10;0.10;;;;;;;17.41;nan;100529.84;7391226;19;20035;-91
2023/11/23 10:25:24;;;;;;;0.00;0.00;;;;;;;18.23;nan;100516.44;7399002;19;20018;-91
2023/11/23 10:27:52;;;;;;;0.00;0.00;;;;;;;17.96;nan;100510.28;7396473;19;20006;-92
2023/11/23 10:30:18;;;;;;;0.20;0.15;;;;;;;18.43;nan;100504.91;7396975;19;20113;-91
2023/11/23 10:32:46;;;;;;;0.08;0.08;;;;;;;18.57;nan;100509.53;7397530;19;20353;-93
2023/11/23 10:35:13;;;;;;;0.00;0.00;;;;;;;18.72;nan;100510.03;7395755;19;20009;-91
2023/11/23 10:37:40;;;;;;;0.00;0.00;;;;;;;18.92;nan;100501.25;7396682;19;20465;-90
2023/11/23 10:40:09;;;;;;;0.00;0.00;;;;;;;18.71;nan;100488.75;7395868;19;20406;-89
2023/11/23 10:42:36;;;;;;;0.10;0.10;;;;;;;18.74;nan;100496.94;7396962;19;20104;-91
2023/11/23 10:45:02;;;;;;;0.28;0.20;;;;;;;18.79;nan;100486.91;7397491;19;20513;-89
2023/11/23 10:47:29;;;;;;;0.00;0.00;;;;;;;18.56;nan;100482.63;7396576;19;20025;-90
2023/11/23 10:49:58;;;;;;;0.00;0.00;;;;;;;18.22;nan;100478.25;7395150;19;20010;-89
2023/11/23 10:52:28;;;;;;;0.00;0.00;;;;;;;18.43;nan;100471.06;7396508;19;20015;-91
2023/11/23 10:54:54;;;;;;;0.00;0.00;;;;;;;18.76;nan;100473.84;7396066;19;20019;-90
2023/11/23 10:57:22;;;;;;;0.00;0.00;;;;;;;19.02;nan;100470.66;7396160;19;20704;-90
2023/11/23 10:59:49;;;;;;;0.00;0.00;;;;;;;18.96;nan;100467.88;7395766;19;20011;-90
2023/11/23 11:02:17;;;;;;;0.00;0.00;;;;;;;18.97;nan;100458.13;7395833;19;20390;-91
2023/11/23 11:04:43;;;;;;;0.00;0.00;;;;;;;18.80;nan;100455.34;7398486;19;20006;-89
2023/11/23 11:07:11;;;;;;;0.10;0.10;;;;;;;18.58;nan;100443.38;7395781;19;20070;-90
2023/11/23 11:09:39;;;;;;;0.00;0.00;;;;;;;18.53;nan;100447.75;7395731;19;20031;-90
2023/11/23 11:12:12;;;;;;;0.00;0.00;;;;;;;18.28;nan;100442.38;7395502;19;20014;-90
2023/11/23 11:14:49;;;;;;;0.00;0.00;;;;;;;18.50;nan;100445.94;7394348;19;20396;-90
2023/11/23 11:17:15;;;;;;;0.00;0.00;;;;;;;18.96;nan;100445.28;7395222;19;20010;-91
2023/11/23 11:19:48;;;;;;;0.00;0.00;;;;;;;18.78;nan;100426.09;7394521;19;20035;-91
2023/11/23 11:22:15;;;;;;;0.00;0.00;;;;;;;18.83;nan;100422.50;7395139;19;20018;-91
2023/11/23 11:24:42;;;;;;;0.10;0.10;;;;;;;17.46;nan;100410.81;7395855;19;20016;-91
2023/11/23 11:27:17;;;;;;;0.00;0.00;;;;;;;18.82;nan;100423.78;7393901;19;20003;-90
2023/11/23 11:29:52;;;;;;;0.00;0.00;;;;;;;19.06;nan;100418.28;7394001;19;20006;-92
2023/11/23 11:32:21;;;;;;;0.00;0.00;;;;;;;18.82;nan;100420.97;7392757;19;20074;-91
2023/11/23 11:34:47;;;;;;;0.00;0.00;;;;;;;17.91;nan;100409.59;7395848;19;20035;-91
2023/11/23 11:37:14;;;;;;;0.00;0.00;;;;;;;17.18;nan;100416.38;7394942;19;20031;-91
2023/11/23 11:39:40;;;;;;;0.00;0.00;;;;;;;18.00;nan;100406.50;7394335;19;20018;-91
2023/11/23 11:42:09;;;;;;;0.00;0.00;;;;;;;18.02;nan;100408.81;7394443;19;20011;-90